Time;durP1;ratioP1;P1;durP2;ratioP2;P2;SDS_P1;SDS_P2;PMS_P1;PMS_P2;Temp;Humidity;BMP_temperature;BMP_pressure;BME280_temperature;BME280_humidity;BME280_pressure;Samples;Min_cycle;Max_cycle;Signal;HPM_P1;HPM_P2
2021/05/21 00:01:14;;;;;;;9.23;3.90;;;13.80;59.60;;;;;;4932973;29;20490;-86
2021/05/21 00:03:40;;;;;;;10.82;3.75;;;13.70;59.50;;;;;;4933164;29;20286;-87
2021/05/21 00:06:07;;;;;;;11.00;3.95;;;13.70;59.60;;;;;;4932794;29;20047;-83
2021/05/21 00:08:34;;;;;;;8.23;3.40;;;13.70;59.60;;;;;;4932192;29;20104;-87
2021/05/21 00:11:00;;;;;;;7.47;3.47;;;13.70;59.70;;;;;;4932963;29;20026;-81
2021/05/21 00:13:26;;;;;;;10.15;3.63;;;13.70;59.70;;;;;;4938090;29;20035;-85
2021/05/21 00:15:52;;;;;;;13.35;3.92;;;13.70;59.80;;;;;;4954486;28;20062;-81
2021/05/21 00:18:18;;;;;;;6.57;3.33;;;13.70;59.80;;;;;;4967380;28;20090;-85
2021/05/21 00:20:44;;;;;;;7.95;3.53;;;13.60;59.70;;;;;;4951190;28;20380;-82
2021/05/21 00:23:10;;;;;;;9.65;3.65;;;13.60;59.70;;;;;;4951706;28;20023;-79
2021/05/21 00:25:36;;;;;;;5.80;3.00;;;13.60;59.80;;;;;;4933631;29;20291;-80
2021/05/21 00:28:02;;;;;;;9.18;3.22;;;13.60;59.80;;;;;;4951166;28;20047;-82
2021/05/21 00:30:28;;;;;;;8.57;3.63;;;13.60;59.90;;;;;;4917417;29;20031;-79
2021/05/21 00:32:55;;;;;;;11.10;3.70;;;13.60;59.90;;;;;;4950866;28;20043;-78
2021/05/21 00:35:21;;;;;;;7.90;4.45;;;13.60;60.00;;;;;;4950623;28;20031;-78
2021/05/21 00:37:47;;;;;;;8.20;3.40;;;13.60;60.00;;;;;;4951676;28;20148;-78
2021/05/21 00:40:13;;;;;;;12.35;4.03;;;13.50;59.80;;;;;;4934530;29;20126;-80
2021/05/21 00:42:39;;;;;;;8.77;3.10;;;13.50;59.90;;;;;;4918246;28;20066;-85
2021/05/21 00:45:06;;;;;;;7.47;3.30;;;13.50;59.90;;;;;;4918151;29;20035;-81
2021/05/21 00:47:32;;;;;;;9.43;3.40;;;13.50;60.00;;;;;;4917459;28;20049;-82
2021/05/21 00:49:58;;;;;;;3.92;2.75;;;13.50;60.00;;;;;;4916613;29;20131;-80
2021/05/21 00:52:27;;;;;;;8.40;3.50;;;13.50;60.00;;;;;;4899070;29;20070;-80
2021/05/21 00:54:54;;;;;;;7.82;2.90;;;13.40;59.90;;;;;;4932780;29;20023;-82
2021/05/21 00:57:29;;;;;;;8.50;3.28;;;13.40;60.00;;;;;;4919994;29;20352;-89
2021/05/21 01:00:22;;;;;;;8.70;3.53;;;13.40;60.00;;;;;;4915470;29;20046;-84
2021/05/21 01:02:49;;;;;;;13.57;3.78;;;13.40;60.00;;;;;;4884623;28;20038;-85
2021/05/21 01:05:15;;;;;;;7.05;3.60;;;13.40;60.10;;;;;;4951417;28;20410;-80
2021/05/21 01:07:41;;;;;;;9.10;3.67;;;13.40;60.10;;;;;;4950924;28;20067;-87
2021/05/21 01:10:07;;;;;;;12.75;4.30;;;13.30;60.00;;;;;;4951592;28;20558;-84
2021/05/21 01:12:33;;;;;;;7.05;3.65;;;13.30;60.00;;;;;;4951095;28;20039;-81
2021/05/21 01:14:59;;;;;;;7.97;3.28;;;13.30;60.00;;;;;;4940018;28;20106;-83
2021/05/21 01:17:26;;;;;;;8.70;3.28;;;13.30;60.10;;;;;;4953561;29;20146;-85
2021/05/21 01:19:53;;;;;;;11.98;4.05;;;13.30;60.10;;;;;;4950823;28;20054;-82
2021/05/21 01:22:19;;;;;;;8.32;3.38;;;13.30;60.10;;;;;;4951754;28;20118;-90
2021/05/21 01:24:46;;;;;;;7.60;3.83;;;13.30;60.20;;;;;;4935120;29;20023;-86
2021/05/21 01:27:12;;;;;;;8.45;4.07;;;13.30;60.30;;;;;;4939610;29;20039;-82
2021/05/21 01:29:40;;;;;;;11.57;3.80;;;13.20;60.10;;;;;;4925377;28;20382;-87
2021/05/21 01:32:10;;;;;;;7.40;3.97;;;13.20;60.20;;;;;;4926564;29;20112;-79
2021/05/21 01:34:38;;;;;;;7.28;3.65;;;13.20;60.20;;;;;;4939906;23;20051;-72
2021/05/21 01:37:21;;;;;;;8.23;3.97;;;13.20;60.20;;;;;;4950055;29;20062;-72
2021/05/21 01:39:51;;;;;;;7.93;3.53;;;13.20;60.30;;;;;;4935417;29;20048;-73
2021/05/21 01:42:18;;;;;;;5.43;3.17;;;13.20;60.20;;;;;;4913777;29;20502;-73
2021/05/21 01:44:45;;;;;;;8.13;3.50;;;13.20;60.20;;;;;;4913887;29;20035;-75
2021/05/21 01:47:12;;;;;;;8.00;3.28;;;13.20;60.30;;;;;;4974023;23;20050;-87
2021/05/21 01:49:40;;;;;;;10.63;3.67;;;13.20;60.30;;;;;;4974352;28;20047;-81
2021/05/21 01:52:06;;;;;;;8.30;3.22;;;13.20;60.30;;;;;;4974029;28;20504;-84
2021/05/21 01:54:33;;;;;;;7.50;2.95;;;13.10;60.20;;;;;;4973783;28;20027;-86
2021/05/21 01:57:01;;;;;;;9.18;3.92;;;13.10;60.30;;;;;;4973595;28;20034;-85
2021/05/21 01:59:27;;;;;;;9.55;3.65;;;13.10;60.30;;;;;;4974824;28;20094;-88
2021/05/21 02:01:53;;;;;;;12.98;3.63;;;13.10;60.30;;;;;;4979979;28;20105;-81
2021/05/21 02:04:31;;;;;;;8.35;3.75;;;13.10;60.30;;;;;;4962698;28;20058;-80
2021/05/21 02:06:58;;;;;;;8.48;3.50;;;13.10;60.50;;;;;;4962496;28;20511;-81
2021/05/21 02:09:24;;;;;;;5.97;2.92;;;13.00;60.30;;;;;;4979996;28;20465;-82
2021/05/21 02:11:50;;;;;;;8.77;4.32;;;13.00;60.30;;;;;;4946572;28;20034;-83
2021/05/21 02:14:17;;;;;;;9.85;3.47;;;13.00;60.30;;;;;;4979809;28;20594;-84
2021/05/21 02:16:43;;;;;;;7.75;3.67;;;13.00;60.30;;;;;;4980454;28;20031;-84
2021/05/21 02:19:09;;;;;;;8.57;4.00;;;13.00;60.40;;;;;;4980791;28;20497;-86
2021/05/21 02:21:36;;;;;;;14.15;4.32;;;13.00;60.40;;;;;;4980621;28;20038;-84
2021/05/21 02:24:06;;;;;;;10.20;2.85;;;13.00;60.40;;;;;;4962599;28;20035;-85
2021/05/21 02:26:34;;;;;;;14.90;4.90;;;13.00;60.40;;;;;;4963079;28;20074;-87
2021/05/21 02:29:00;;;;;;;6.00;3.15;;;13.00;60.50;;;;;;4962387;28;20063;-83
2021/05/21 02:31:26;;;;;;;12.07;3.45;;;13.00;60.50;;;;;;4979695;28;20498;-81
2021/05/21 02:33:52;;;;;;;10.70;4.05;;;13.00;60.50;;;;;;4979772;28;20031;-83
2021/05/21 02:36:18;;;;;;;8.60;3.60;;;13.00;60.50;;;;;;4979474;28;20035;-81
2021/05/21 02:38:44;;;;;;;12.90;3.75;;;13.00;60.50;;;;;;4979898;28;20019;-88
2021/05/21 02:41:10;;;;;;;7.70;3.38;;;13.00;60.60;;;;;;4980026;28;20363;-82
2021/05/21 02:43:36;;;;;;;8.73;3.47;;;13.00;60.60;;;;;;4962005;28;20037;-86
2021/05/21 02:46:02;;;;;;;7.38;3.47;;;12.90;60.40;;;;;;4946387;28;20046;-81
2021/05/21 02:48:29;;;;;;;9.55;3.50;;;12.90;60.50;;;;;;4962722;28;20067;-81
2021/05/21 02:50:55;;;;;;;11.30;4.05;;;12.90;60.50;;;;;;4962944;28;20035;-89
2021/05/21 02:53:24;;;;;;;10.65;3.50;;;12.90;60.50;;;;;;4948262;28;20089;-91
2021/05/21 02:55:50;;;;;;;5.40;2.97;;;12.90;60.60;;;;;;4948318;28;20366;-83
2021/05/21 02:58:23;;;;;;;8.98;4.10;;;12.90;60.60;;;;;;4980523;28;20651;-90
2021/05/21 03:00:50;;;;;;;9.05;3.03;;;12.80;60.50;;;;;;4980057;28;20043;-83
2021/05/21 03:03:16;;;;;;;7.35;2.92;;;12.80;60.50;;;;;;4962539;28;20074;-82
2021/05/21 03:05:43;;;;;;;9.55;3.20;;;12.80;60.50;;;;;;4979649;28;20183;-87
2021/05/21 03:08:12;;;;;;;9.43;3.47;;;12.80;60.50;;;;;;4963200;28;20034;-86
2021/05/21 03:10:38;;;;;;;9.55;4.45;;;12.80;60.60;;;;;;4961964;28;20035;-84
2021/05/21 03:13:05;;;;;;;9.13;3.38;;;12.80;60.60;;;;;;4942326;28;20038;-89
2021/05/21 03:15:31;;;;;;;11.45;3.80;;;12.80;60.60;;;;;;4943241;28;20097;-84
2021/05/21 03:17:59;;;;;;;8.32;3.47;;;12.70;60.50;;;;;;4975696;28;20031;-81
2021/05/21 03:20:25;;;;;;;9.00;3.58;;;12.80;60.70;;;;;;4976744;28;20487;-82
2021/05/21 03:22:51;;;;;;;10.68;3.33;;;12.80;60.70;;;;;;4976193;28;20058;-83
2021/05/21 03:25:17;;;;;;;9.85;3.95;;;12.80;60.70;;;;;;4959379;28;20066;-85
2021/05/21 03:27:43;;;;;;;6.93;2.80;;;12.80;60.80;;;;;;4975981;28;20035;-91
2021/05/21 03:30:10;;;;;;;6.47;2.95;;;12.70;60.60;;;;;;4976128;28;20041;-88
2021/05/21 03:32:36;;;;;;;6.82;3.63;;;12.70;60.60;;;;;;4976100;28;20031;-82
2021/05/21 03:35:05;;;;;;;10.85;3.63;;;12.70;60.60;;;;;;4976602;28;20035;-81
2021/05/21 03:37:31;;;;;;;5.47;2.60;;;12.70;60.70;;;;;;4976960;28;20030;-80
2021/05/21 03:39:57;;;;;;;7.70;3.58;;;12.70;60.70;;;;;;4977053;28;20031;-81
2021/05/21 03:42:23;;;;;;;7.38;3.63;;;12.70;60.70;;;;;;4976394;28;20027;-88
2021/05/21 03:44:49;;;;;;;7.50;3.88;;;12.70;60.80;;;;;;4958305;28;20426;-83
2021/05/21 03:47:15;;;;;;;7.78;3.88;;;12.70;60.80;;;;;;4975249;28;20058;-83
2021/05/21 03:49:41;;;;;;;9.15;3.03;;;12.70;60.80;;;;;;4942472;28;20038;-87
2021/05/21 03:52:08;;;;;;;8.88;3.35;;;12.70;60.80;;;;;;4959034;28;20126;-84
2021/05/21 03:54:37;;;;;;;7.53;2.88;;;12.60;60.60;;;;;;4976239;28;20482;-83
2021/05/21 03:57:05;;;;;;;10.18;2.85;;;12.60;60.70;;;;;;4958146;28;20030;-81
2021/05/21 03:59:31;;;;;;;7.38;3.08;;;12.60;60.70;;;;;;4942234;28;20580;-81
2021/05/21 04:01:57;;;;;;;7.35;3.47;;;12.60;60.70;;;;;;4975217;28;20039;-81
2021/05/21 04:04:23;;;;;;;7.40;3.28;;;12.60;60.70;;;;;;4958522;28;20038;-80
2021/05/21 04:06:49;;;;;;;10.13;3.30;;;12.60;60.70;;;;;;4975340;28;20034;-83
2021/05/21 04:09:15;;;;;;;5.00;2.95;;;12.60;60.80;;;;;;4975532;28;20031;-83
2021/05/21 04:11:41;;;;;;;9.73;3.70;;;12.60;60.80;;;;;;4974842;28;20505;-88
2021/05/21 04:14:07;;;;;;;8.48;3.22;;;12.60;60.80;;;;;;4975984;28;20030;-87
2021/05/21 04:16:34;;;;;;;10.85;4.53;;;12.60;60.80;;;;;;4958522;28;20081;-86
2021/05/21 04:19:00;;;;;;;4.68;2.65;;;12.60;60.80;;;;;;4975845;28;20081;-87
2021/05/21 04:21:27;;;;;;;6.07;2.78;;;12.60;60.80;;;;;;4976028;28;20038;-83
2021/05/21 04:23:55;;;;;;;5.93;3.15;;;12.60;60.80;;;;;;4975806;28;20038;-80
2021/05/21 04:26:21;;;;;;;8.77;3.25;;;12.60;60.90;;;;;;4975768;28;20070;-78
2021/05/21 04:28:48;;;;;;;10.63;3.83;;;12.60;60.80;;;;;;4976408;28;20031;-85
2021/05/21 04:31:15;;;;;;;7.38;3.25;;;12.60;60.80;;;;;;4975394;28;20042;-79
2021/05/21 04:33:42;;;;;;;8.20;3.13;;;12.60;61.40;;;;;;4958034;28;20054;-83
2021/05/21 04:36:08;;;;;;;8.57;3.67;;;12.60;60.90;;;;;;4957641;28;20061;-79
2021/05/21 04:38:34;;;;;;;10.50;3.72;;;12.60;60.90;;;;;;4958510;28;20031;-80
2021/05/21 04:41:01;;;;;;;8.10;2.83;;;12.60;60.90;;;;;;4975304;28;20052;-83
2021/05/21 04:43:28;;;;;;;9.43;3.55;;;12.60;60.90;;;;;;4958163;28;20051;-84
2021/05/21 04:45:55;;;;;;;8.10;4.07;;;12.60;60.90;;;;;;4957800;28;20039;-81
2021/05/21 04:48:21;;;;;;;7.43;2.95;;;12.60;61.00;;;;;;4952246;29;20043;-90
2021/05/21 04:50:47;;;;;;;12.13;4.05;;;12.60;60.90;;;;;;4953285;29;20086;-88
2021/05/21 04:53:14;;;;;;;10.73;4.15;;;12.60;60.90;;;;;;4954308;29;20098;-88
2021/05/21 04:55:41;;;;;;;7.13;3.20;;;12.60;61.00;;;;;;4953197;29;20050;-88
2021/05/21 04:58:07;;;;;;;6.95;3.08;;;12.60;61.00;;;;;;4959891;28;20030;-86
2021/05/21 05:00:35;;;;;;;10.73;3.30;;;12.60;61.00;;;;;;4972841;28;20058;-89
2021/05/21 05:03:08;;;;;;;6.22;3.42;;;12.60;61.00;;;;;;4970580;28;20125;-79
2021/05/21 05:05:34;;;;;;;9.10;2.90;;;12.60;61.10;;;;;;4970948;28;20035;-79
2021/05/21 05:08:01;;;;;;;7.82;3.17;;;12.60;61.00;;;;;;4970206;28;20390;-83
2021/05/21 05:10:28;;;;;;;8.65;3.45;;;12.60;61.00;;;;;;4953130;28;20082;-84
2021/05/21 05:12:55;;;;;;;9.15;3.15;;;12.60;61.10;;;;;;4952535;28;20082;-83
2021/05/21 05:15:21;;;;;;;5.47;3.05;;;12.60;61.10;;;;;;4953735;28;20037;-84
2021/05/21 05:17:49;;;;;;;8.13;2.95;;;12.50;60.90;;;;;;4969557;28;20066;-83
2021/05/21 05:20:16;;;;;;;10.20;3.83;;;12.50;60.90;;;;;;4969710;28;20035;-81
2021/05/21 05:22:43;;;;;;;8.85;3.35;;;12.50;61.00;;;;;;4951958;28;20035;-76
2021/05/21 05:25:10;;;;;;;11.00;3.63;;;12.50;61.00;;;;;;4970609;28;20089;-80
2021/05/21 05:27:36;;;;;;;9.32;3.83;;;12.50;61.20;;;;;;4970711;28;20043;-83
2021/05/21 05:30:04;;;;;;;13.25;3.75;;;12.60;61.50;;;;;;4950286;28;20119;-89
2021/05/21 05:32:30;;;;;;;6.38;2.72;;;12.50;61.90;;;;;;4971286;28;20030;-79
2021/05/21 05:34:56;;;;;;;10.95;3.67;;;12.60;61.60;;;;;;4969429;28;20030;-84
2021/05/21 05:37:22;;;;;;;9.85;3.83;;;12.60;61.60;;;;;;4970832;28;20023;-82
2021/05/21 05:39:48;;;;;;;9.68;3.53;;;12.60;61.70;;;;;;4952299;29;20186;-84
2021/05/21 05:42:14;;;;;;;7.60;3.00;;;12.60;61.70;;;;;;4951449;28;20118;-77
2021/05/21 05:44:40;;;;;;;8.90;3.22;;;12.60;61.70;;;;;;4969032;28;20050;-79
2021/05/21 05:47:06;;;;;;;10.18;3.95;;;12.60;61.70;;;;;;4969238;28;20073;-82
2021/05/21 05:49:32;;;;;;;10.98;3.53;;;12.60;61.80;;;;;;4969320;28;20042;-80
2021/05/21 05:51:58;;;;;;;9.43;3.25;;;12.60;61.80;;;;;;4969792;28;20031;-84
2021/05/21 05:54:26;;;;;;;6.35;3.20;;;12.60;61.80;;;;;;4952853;28;20023;-81
2021/05/21 05:56:56;;;;;;;9.50;3.28;;;12.60;61.80;;;;;;4969996;28;20045;-85
2021/05/21 05:59:24;;;;;;;13.65;3.47;;;12.60;61.90;;;;;;4969859;28;20458;-80
2021/05/21 06:01:50;;;;;;;15.13;4.35;;;12.60;61.90;;;;;;4952780;28;20035;-83
2021/05/21 06:04:16;;;;;;;13.18;3.28;;;12.60;61.90;;;;;;4933040;29;20027;-80
2021/05/21 06:06:43;;;;;;;5.32;2.83;;;12.60;61.90;;;;;;4949818;29;20049;-80
2021/05/21 06:09:09;;;;;;;9.25;4.00;;;12.60;61.90;;;;;;4966184;28;20121;-90
2021/05/21 06:11:36;;;;;;;10.93;3.78;;;12.60;61.90;;;;;;4952685;28;20478;-84
2021/05/21 06:14:03;;;;;;;8.10;3.90;;;12.60;61.90;;;;;;4953243;28;20138;-88
2021/05/21 06:16:30;;;;;;;9.80;3.63;;;12.60;61.90;;;;;;4951895;28;20042;-82
2021/05/21 06:18:59;;;;;;;9.20;3.60;;;12.70;62.10;;;;;;4951192;28;20037;-83
2021/05/21 06:21:25;;;;;;;9.02;3.92;;;12.60;61.90;;;;;;4936147;28;20035;-85
2021/05/21 06:23:54;;;;;;;10.30;3.90;;;12.70;62.10;;;;;;4936348;28;20153;-80
2021/05/21 06:28:53;;;;;;;7.15;2.38;;;12.70;62.10;;;;;;4951532;28;20027;-81
2021/05/21 06:31:19;;;;;;;7.75;3.28;;;12.70;62.10;;;;;;4935408;28;20034;-80
2021/05/21 06:33:46;;;;;;;9.15;3.35;;;12.70;62.10;;;;;;4951273;28;20037;-83
2021/05/21 06:36:12;;;;;;;10.63;4.05;;;12.80;62.20;;;;;;4968499;28;20031;-81
2021/05/21 06:38:39;;;;;;;8.05;3.25;;;12.80;62.20;;;;;;4968825;28;20410;-77
2021/05/21 06:41:06;;;;;;;8.82;3.55;;;12.80;62.10;;;;;;4968220;28;20035;-79
2021/05/21 06:43:32;;;;;;;10.48;3.65;;;12.90;62.30;;;;;;4968906;28;20059;-86
2021/05/21 06:45:59;;;;;;;8.55;3.33;;;12.80;62.00;;;;;;4951117;28;20529;-81
2021/05/21 06:48:30;;;;;;;8.60;3.42;;;12.90;62.20;;;;;;4971711;28;20031;-78
2021/05/21 06:50:57;;;;;;;9.20;3.00;;;12.90;62.20;;;;;;4972511;28;20038;-81
2021/05/21 06:53:23;;;;;;;5.35;2.33;;;12.90;62.20;;;;;;4972328;28;20050;-82
2021/05/21 06:55:50;;;;;;;5.45;2.85;;;12.90;62.20;;;;;;4955138;28;20117;-83
2021/05/21 06:58:19;;;;;;;7.25;3.03;;;12.90;62.20;;;;;;4938921;28;20192;-80
2021/05/21 07:00:46;;;;;;;11.10;3.08;;;12.90;62.20;;;;;;4954470;28;20108;-80
2021/05/21 07:03:12;;;;;;;7.70;3.10;;;12.90;62.30;;;;;;4955379;28;20039;-79
2021/05/21 07:05:39;;;;;;;7.30;2.65;;;12.90;62.20;;;;;;4938675;28;20038;-80
2021/05/21 07:08:05;;;;;;;6.18;2.75;;;12.90;62.20;;;;;;4938178;28;20041;-81
2021/05/21 07:10:31;;;;;;;8.35;3.10;;;12.90;62.30;;;;;;4954665;28;20026;-81
2021/05/21 07:13:09;;;;;;;7.47;2.70;;;12.90;62.30;;;;;;4971650;28;20031;-85
2021/05/21 07:15:35;;;;;;;5.93;3.05;;;12.90;62.30;;;;;;4955385;28;20442;-79
2021/05/21 07:18:01;;;;;;;8.02;3.00;;;12.90;62.30;;;;;;4954730;28;20505;-83
2021/05/21 07:20:27;;;;;;;5.50;2.65;;;12.90;62.30;;;;;;4971999;28;20027;-79
2021/05/21 07:22:53;;;;;;;6.82;3.03;;;12.90;62.30;;;;;;4972442;28;20094;-87
2021/05/21 07:25:19;;;;;;;7.90;2.85;;;12.90;62.40;;;;;;4955477;28;20042;-83
2021/05/21 07:27:45;;;;;;;7.25;2.60;;;13.00;62.50;;;;;;4937161;28;20054;-88
2021/05/21 07:30:11;;;;;;;6.35;2.95;;;13.00;62.50;;;;;;4971424;28;20027;-82
2021/05/21 07:32:37;;;;;;;6.80;2.67;;;13.00;62.40;;;;;;4954567;28;20030;-86
2021/05/21 07:35:05;;;;;;;7.88;3.15;;;13.00;62.40;;;;;;4955663;28;20712;-85
2021/05/21 07:37:31;;;;;;;5.35;2.28;;;13.10;62.60;;;;;;4954614;28;20034;-79
2021/05/21 07:39:57;;;;;;;4.85;3.03;;;13.10;62.50;;;;;;4954130;28;20113;-81
2021/05/21 07:42:23;;;;;;;4.82;2.50;;;13.10;62.50;;;;;;4971728;28;20117;-82
2021/05/21 07:44:49;;;;;;;4.03;2.05;;;13.10;62.50;;;;;;4972290;28;20090;-83
2021/05/21 07:47:15;;;;;;;7.40;2.45;;;13.10;62.50;;;;;;4972183;28;20051;-82
2021/05/21 07:49:41;;;;;;;5.90;2.38;;;13.10;62.40;;;;;;4971794;28;20062;-80
2021/05/21 07:52:08;;;;;;;6.05;2.55;;;13.20;63.20;;;;;;4971676;28;20117;-79
2021/05/21 07:54:34;;;;;;;7.80;2.80;;;13.20;62.60;;;;;;4954359;28;20057;-79
2021/05/21 07:57:00;;;;;;;6.40;2.67;;;13.20;62.60;;;;;;4971056;28;20085;-80
2021/05/21 07:59:26;;;;;;;4.90;2.30;;;13.20;62.60;;;;;;4970628;28;20034;-81
2021/05/21 08:01:52;;;;;;;6.55;2.90;;;13.30;62.80;;;;;;4937515;28;20031;-80
2021/05/21 08:04:18;;;;;;;7.50;2.20;;;13.20;62.60;;;;;;4970873;28;20035;-86
2021/05/21 08:06:44;;;;;;;3.63;1.88;;;13.30;62.80;;;;;;4971320;28;20087;-86
2021/05/21 08:09:10;;;;;;;4.85;2.58;;;13.30;62.70;;;;;;4972933;28;20406;-83
2021/05/21 08:11:37;;;;;;;4.68;2.30;;;13.30;62.70;;;;;;4972445;28;20035;-83
2021/05/21 08:14:03;;;;;;;4.75;2.38;;;13.30;62.70;;;;;;4954581;28;20058;-83
2021/05/21 08:16:29;;;;;;;9.90;2.47;;;13.40;62.80;;;;;;4954206;28;20137;-81
2021/05/21 08:18:56;;;;;;;9.88;3.03;;;13.40;62.80;;;;;;4970899;28;20026;-80
2021/05/21 08:21:24;;;;;;;7.95;2.70;;;13.40;62.70;;;;;;4972326;28;20042;-85
2021/05/21 08:23:50;;;;;;;4.05;2.28;;;13.50;62.80;;;;;;4970217;28;20058;-82
2021/05/21 08:26:16;;;;;;;5.60;2.63;;;13.40;62.60;;;;;;4972167;28;20442;-83
2021/05/21 08:28:43;;;;;;;7.82;2.60;;;13.50;62.80;;;;;;4971193;28;20113;-84
2021/05/21 08:31:10;;;;;;;8.00;2.33;;;13.50;62.80;;;;;;4970454;28;20035;-80
2021/05/21 08:33:43;;;;;;;6.68;2.88;;;13.40;62.60;;;;;;4969136;28;20035;-80
2021/05/21 08:36:11;;;;;;;5.32;2.63;;;13.50;62.70;;;;;;4970979;28;20557;-82
2021/05/21 08:38:41;;;;;;;6.00;2.58;;;13.50;62.70;;;;;;4971723;28;20726;-89
2021/05/21 08:41:16;;;;;;;7.63;3.25;;;13.50;62.70;;;;;;4970944;28;20033;-84
2021/05/21 08:43:46;;;;;;;5.22;2.72;;;13.50;62.80;;;;;;4953740;28;20030;-83
2021/05/21 08:46:13;;;;;;;7.15;2.47;;;13.60;62.90;;;;;;4952940;28;20100;-82
2021/05/21 08:48:40;;;;;;;6.47;2.50;;;13.60;62.90;;;;;;4969683;28;20039;-84
2021/05/21 08:51:09;;;;;;;7.60;2.10;;;13.60;62.80;;;;;;4952342;28;20030;-81
2021/05/21 08:53:36;;;;;;;6.20;2.92;;;13.60;62.80;;;;;;4969156;28;20038;-81
2021/05/21 08:56:03;;;;;;;5.00;2.33;;;13.60;62.80;;;;;;4969871;28;20034;-81
2021/05/21 08:58:29;;;;;;;3.60;1.90;;;13.70;63.00;;;;;;4952528;28;20089;-80
2021/05/21 09:00:55;;;;;;;5.68;2.03;;;13.70;63.00;;;;;;4952181;28;20512;-81
2021/05/21 09:03:25;;;;;;;5.15;2.85;;;13.80;63.20;;;;;;4968951;28;20034;-80
2021/05/21 09:06:12;;;;;;;12.15;2.90;;;13.80;63.00;;;;;;4969397;28;20045;-83
2021/05/21 09:08:44;;;;;;;6.32;2.83;;;13.90;63.20;;;;;;4952506;28;20478;-84
2021/05/21 09:11:22;;;;;;;9.30;2.70;;;14.00;63.10;;;;;;4969030;28;20023;-82
2021/05/21 09:13:50;;;;;;;6.50;2.65;;;14.00;63.10;;;;;;4952574;28;20150;-81
2021/05/21 09:16:19;;;;;;;6.03;2.40;;;14.00;63.00;;;;;;4952505;28;20027;-83
2021/05/21 09:19:02;;;;;;;5.53;2.42;;;14.10;63.10;;;;;;4969440;28;20398;-81
2021/05/21 09:21:57;;;;;;;5.13;2.17;;;14.10;63.30;;;;;;4969251;28;20053;-80
2021/05/21 09:24:35;;;;;;;4.70;1.85;;;14.10;63.00;;;;;;4968755;28;20031;-80
2021/05/21 09:27:03;;;;;;;7.28;2.70;;;14.20;63.10;;;;;;4951805;28;20070;-81
2021/05/21 09:29:35;;;;;;;5.18;2.22;;;14.20;63.10;;;;;;4951930;28;20037;-80
2021/05/21 09:32:13;;;;;;;4.97;2.25;;;14.30;63.30;;;;;;4969349;28;20043;-81
2021/05/21 09:34:40;;;;;;;4.13;2.08;;;14.30;63.10;;;;;;4969871;28;20041;-81
2021/05/21 09:37:06;;;;;;;4.68;2.35;;;14.40;63.20;;;;;;4952044;28;20514;-80
2021/05/21 09:39:32;;;;;;;5.60;1.85;;;14.40;63.10;;;;;;4969292;28;20042;-80
2021/05/21 09:41:58;;;;;;;7.75;2.80;;;14.40;63.10;;;;;;4969808;28;20410;-81
2021/05/21 09:44:26;;;;;;;8.60;2.60;;;14.50;63.50;;;;;;4968405;28;20062;-82
2021/05/21 09:46:53;;;;;;;5.97;2.20;;;14.60;63.90;;;;;;4968808;28;20093;-79
2021/05/21 09:49:34;;;;;;;9.45;3.30;;;14.70;63.90;;;;;;4951930;28;20118;-80
2021/05/21 09:52:05;;;;;;;6.90;2.00;;;14.80;64.10;;;;;;4952113;28;20035;-80
2021/05/21 09:54:51;;;;;;;6.47;2.55;;;14.90;64.00;;;;;;4969414;28;20113;-82
2021/05/21 09:57:37;;;;;;;5.38;2.13;;;15.00;64.10;;;;;;4969595;28;20035;-84
2021/05/21 10:00:09;;;;;;;7.28;2.30;;;15.10;64.10;;;;;;4952207;28;20057;-85
2021/05/21 10:02:36;;;;;;;4.07;2.33;;;15.30;64.20;;;;;;4968469;28;20027;-81
2021/05/21 10:05:05;;;;;;;7.85;2.28;;;15.40;64.30;;;;;;4969022;28;20386;-81
2021/05/21 10:07:31;;;;;;;7.32;2.72;;;15.50;64.30;;;;;;4968362;28;20042;-80
2021/05/21 10:09:57;;;;;;;5.93;2.35;;;15.70;64.40;;;;;;4950234;29;20031;-78
2021/05/21 10:12:24;;;;;;;6.50;2.50;;;15.90;64.60;;;;;;4951505;28;20046;-81
2021/05/21 10:14:52;;;;;;;8.98;3.15;;;16.10;64.70;;;;;;4952380;28;20023;-80
2021/05/21 10:17:20;;;;;;;6.57;2.30;;;16.30;64.70;;;;;;4968743;28;20031;-83
2021/05/21 10:19:47;;;;;;;8.13;2.65;;;16.40;64.50;;;;;;4969337;28;20090;-82
2021/05/21 10:22:23;;;;;;;9.02;2.22;;;16.60;64.50;;;;;;4971843;28;20420;-83
2021/05/21 10:24:53;;;;;;;5.93;2.50;;;16.80;64.60;;;;;;4973139;28;20393;-82
2021/05/21 10:27:24;;;;;;;7.68;2.88;;;16.90;64.50;;;;;;4971963;28;20133;-81
2021/05/21 10:30:02;;;;;;;6.70;2.55;;;17.10;64.50;;;;;;4972448;28;20600;-85
2021/05/21 10:32:30;;;;;;;7.18;2.30;;;17.10;64.30;;;;;;4972384;28;20039;-78
2021/05/21 10:34:57;;;;;;;8.90;3.15;;;17.20;64.30;;;;;;4974085;28;20079;-82
2021/05/21 10:37:42;;;;;;;7.28;2.63;;;17.20;64.10;;;;;;4972605;28;20027;-82
2021/05/21 10:40:27;;;;;;;13.70;3.50;;;17.30;64.10;;;;;;4973333;28;20184;-84
2021/05/21 10:43:16;;;;;;;10.68;2.95;;;17.30;64.00;;;;;;4974297;28;20114;-80
2021/05/21 10:46:13;;;;;;;9.27;3.30;;;17.40;64.10;;;;;;4959525;28;20047;-80
2021/05/21 10:48:59;;;;;;;9.25;3.20;;;17.40;64.00;;;;;;4975153;28;20038;-83
2021/05/21 10:51:28;;;;;;;8.25;3.47;;;17.50;64.00;;;;;;4941980;28;20031;-81
2021/05/21 10:54:22;;;;;;;10.00;3.38;;;17.50;63.90;;;;;;4973225;28;20038;-88
2021/05/21 10:56:48;;;;;;;15.00;3.20;;;17.50;63.70;;;;;;4957864;28;20037;-86
2021/05/21 10:59:14;;;;;;;6.15;3.25;;;17.50;63.70;;;;;;4972419;28;20489;-82
2021/05/21 11:01:47;;;;;;;9.18;3.55;;;17.60;63.90;;;;;;4972396;28;20041;-86
2021/05/21 11:04:18;;;;;;;10.25;3.45;;;17.70;63.90;;;;;;4972867;28;20070;-82
2021/05/21 11:06:50;;;;;;;10.30;3.45;;;17.70;63.80;;;;;;4972744;28;20050;-84
2021/05/21 11:09:30;;;;;;;7.28;3.65;;;17.80;63.80;;;;;;4974064;28;20035;-85
2021/05/21 11:12:09;;;;;;;12.30;4.45;;;17.80;63.60;;;;;;4975752;28;20114;-89
2021/05/21 11:14:40;;;;;;;10.98;5.13;;;17.80;63.50;;;;;;4977193;28;20426;-81
2021/05/21 11:17:12;;;;;;;13.70;4.80;;;17.80;63.40;;;;;;4974658;28;20124;-88
2021/05/21 11:20:13;;;;;;;10.20;5.03;;;17.70;63.30;;;;;;4957895;28;20038;-84
2021/05/21 11:22:39;;;;;;;11.10;4.88;;;17.70;63.40;;;;;;4957367;28;20049;-82
2021/05/21 11:25:14;;;;;;;10.20;4.63;;;17.60;63.20;;;;;;4974341;28;20035;-83
2021/05/21 11:27:40;;;;;;;9.57;4.82;;;17.60;63.30;;;;;;4956087;28;20406;-89
2021/05/21 11:30:09;;;;;;;14.57;4.25;;;17.60;63.40;;;;;;4974306;28;20023;-87
2021/05/21 11:32:40;;;;;;;11.45;4.35;;;17.60;63.30;;;;;;4971554;28;20030;-86
2021/05/21 11:35:08;;;;;;;11.18;4.70;;;17.70;63.40;;;;;;4972985;28;20031;-84
2021/05/21 11:37:35;;;;;;;8.32;4.28;;;17.70;63.20;;;;;;4972714;28;20038;-84
2021/05/21 11:40:05;;;;;;;10.07;3.85;;;17.70;63.20;;;;;;4954414;29;20509;-83
2021/05/21 11:42:31;;;;;;;5.80;3.53;;;17.70;63.10;;;;;;4956842;28;20027;-87
2021/05/21 11:44:58;;;;;;;6.82;3.70;;;17.70;63.10;;;;;;4976925;28;20066;-81
2021/05/21 11:47:30;;;;;;;8.05;3.28;;;17.70;63.00;;;;;;4977937;28;20057;-83
2021/05/21 11:49:58;;;;;;;9.05;4.13;;;17.70;63.10;;;;;;4975397;28;20047;-87
2021/05/21 11:52:24;;;;;;;10.15;5.63;;;17.70;63.10;;;;;;4973391;28;20034;-84
2021/05/21 11:54:51;;;;;;;7.93;4.13;;;17.80;63.40;;;;;;4970707;28;20070;-80
2021/05/21 11:57:19;;;;;;;9.45;4.80;;;17.80;63.50;;;;;;4971252;28;20031;-81
2021/05/21 11:59:47;;;;;;;10.98;4.75;;;17.80;63.40;;;;;;4970495;28;20035;-78
2021/05/21 12:02:17;;;;;;;14.10;4.43;;;17.80;63.40;;;;;;4954203;28;20023;-85
2021/05/21 12:04:44;;;;;;;9.85;4.32;;;17.90;63.60;;;;;;4954972;28;20054;-87
2021/05/21 12:07:19;;;;;;;15.23;4.10;;;18.00;63.60;;;;;;4972127;28;20050;-86
2021/05/21 12:10:00;;;;;;;11.65;4.25;;;18.20;63.70;;;;;;4971077;28;20030;-85
2021/05/21 12:12:27;;;;;;;8.93;4.13;;;18.20;63.50;;;;;;4937797;28;20045;-83
2021/05/21 12:15:20;;;;;;;8.23;4.50;;;18.20;63.30;;;;;;4937776;28;20030;-88
2021/05/21 12:17:50;;;;;;;6.45;3.10;;;18.30;63.50;;;;;;4953251;28;20426;-85
2021/05/21 12:20:18;;;;;;;9.75;4.25;;;18.30;63.40;;;;;;4971305;28;20034;-82
2021/05/21 12:23:05;;;;;;;8.25;3.60;;;18.20;63.10;;;;;;4952978;28;20027;-84
2021/05/21 12:25:33;;;;;;;8.30;4.10;;;18.20;63.20;;;;;;4972381;28;20038;-83
2021/05/21 12:28:00;;;;;;;8.25;3.42;;;18.20;63.20;;;;;;4956670;28;20461;-86
2021/05/21 12:30:28;;;;;;;10.32;3.75;;;18.20;63.10;;;;;;4942896;28;20030;-93
2021/05/21 12:32:54;;;;;;;9.70;3.38;;;18.20;63.00;;;;;;4955409;28;20565;-84
2021/05/21 12:35:39;;;;;;;8.77;3.45;;;18.30;63.20;;;;;;4953266;28;20505;-83
2021/05/21 12:38:06;;;;;;;6.57;3.00;;;18.30;63.10;;;;;;4971274;28;20062;-84
2021/05/21 12:40:32;;;;;;;9.18;3.72;;;18.30;63.00;;;;;;4954965;28;20061;-85
2021/05/21 12:43:05;;;;;;;7.93;3.70;;;18.30;63.20;;;;;;4971497;28;20422;-84
2021/05/21 12:45:35;;;;;;;7.60;3.40;;;18.40;63.20;;;;;;4955231;28;20030;-85
2021/05/21 12:48:01;;;;;;;11.80;3.72;;;18.40;63.10;;;;;;4970336;28;20397;-82
2021/05/21 12:50:32;;;;;;;11.63;3.92;;;18.50;63.20;;;;;;4969459;28;20030;-83
2021/05/21 12:53:01;;;;;;;6.95;3.40;;;18.50;63.00;;;;;;4952113;28;20066;-82
2021/05/21 12:55:28;;;;;;;7.18;3.05;;;18.50;62.90;;;;;;4969824;28;20510;-84